Latest Weather Observations for Burnie Port

IDT60801

Issued at 4:51 pm EDT Monday 14 October 2019 (issued every 10 minutes, with the page automatically refreshed every 10 minutes)

About weather observations | Map of weather stations | Latest weather observations for TAS | Other Formats
Station Details ID: 091344 Name: BURNIE NTC AWS Lat: -41.05 Lon: 145.91 Height: 0.0 m
Data from the previous 72 hours. | See also: Recent months for locations in Tasmania
Date/Time
EDT
Temp
°C
App
Temp
°C
Dew
Point
°C
Rel
Hum
%
Delta-T
°C
Wind Press
QNH
hPa
Press
MSL
hPa
Rain since
9am
mm
Dir  Spd
km/h
Gust
km/h
Spd
kts
Gust
kts
14/04:30pm 12.6 - - - - E 6 7 3 4 1011.0 1011.0 -
14/04:00pm 12.4 - - - - E 7 9 4 5 1011.1 1011.1 -
14/03:30pm 12.6 - - - - E 11 15 6 8 1011.2 1011.2 -
14/03:00pm 12.7 - - - - E 15 17 8 9 1011.3 1011.3 -
14/02:30pm 12.7 - - - - E 17 19 9 10 1011.8 1011.8 -
14/02:00pm 12.5 - - - - ESE 17 19 9 10 1012.2 1012.2 -
14/01:30pm 12.7 - - - - ESE 17 19 9 10 1012.4 1012.4 -
14/01:00pm 12.6 - - - - ESE 17 19 9 10 1012.8 1012.8 -
14/12:30pm 12.6 - - - - ESE 19 20 10 11 1012.9 1012.9 -
14/12:00pm 12.7 - - - - ESE 19 22 10 12 1013.3 1013.3 -
14/11:30am 12.6 - - - - ESE 20 22 11 12 1013.6 1013.6 -
14/11:00am 12.5 - - - - ESE 19 24 10 13 1013.7 1013.7 -
14/10:30am 12.5 - - - - ESE 19 24 10 13 1013.8 1013.8 -
14/10:00am 12.5 - - - - ESE 22 26 12 14 1013.9 1013.9 -
14/09:30am 12.4 - - - - ESE 22 26 12 14 1014.1 1014.1 -
14/09:00am 12.3 - - - - ESE 24 30 13 16 1014.1 1014.1 -
14/08:30am 12.2 - - - - ESE 24 32 13 17 1014.2 1014.2 -
14/08:00am 12.3 - - - - ESE 24 30 13 16 1014.2 1014.2 -
14/07:30am 12.0 - - - - SE 26 32 14 17 1014.2 1014.2 -
14/07:00am 11.9 - - - - SE 20 28 11 15 1014.3 1014.3 -
14/06:30am 11.2 - - - - SSE 20 33 11 18 1014.4 1014.4 -
14/06:00am 11.7 - - - - SE 22 28 12 15 1014.0 1014.0 -
14/05:30am 10.7 - - - - SSE 17 24 9 13 1013.9 1013.9 -
14/05:00am 11.2 - - - - SSE 19 28 10 15 1013.9 1013.9 -
14/04:30am 11.3 - - - - SSE 22 30 12 16 1014.0 1014.0 -
14/04:00am 11.4 - - - - SE 20 26 11 14 1014.6 1014.6 -
14/03:30am 11.3 - - - - SSE 20 28 11 15 1014.8 1014.8 -
14/03:00am 11.4 - - - - SE 20 26 11 14 1015.1 1015.1 -
14/02:30am 11.6 - - - - SE 22 30 12 16 1015.4 1015.4 -
14/02:00am 11.7 - - - - SE 22 28 12 15 1015.7 1015.7 -
14/01:30am 11.8 - - - - SE 22 26 12 14 1016.2 1016.2 -
14/01:00am 11.7 - - - - SE 17 24 9 13 1016.7 1016.7 -
14/12:30am 11.8 - - - - SE 20 24 11 13 1016.7 1016.7 -
14/12:00am 11.7 - - - - ESE 19 22 10 12 1016.9 1016.9 -
 
Date/Time
EDT
Temp
°C
App
Temp
°C
Dew
Point
°C
Rel
Hum
%
Delta-T
°C
Wind Press
QNH
hPa
Press
MSL
hPa
Rain since
9am
mm
Dir  Spd
km/h
Gust
km/h
Spd
kts
Gust
kts
13/11:30pm 11.7 - - - - ESE 19 24 10 13 1017.0 1017.0 -
13/11:00pm 11.8 - - - - ESE 17 19 9 10 1017.7 1017.7 -
13/10:30pm 11.9 - - - - ESE 15 17 8 9 1017.9 1017.9 -
13/10:00pm 11.7 - - - - ESE 15 19 8 10 1017.8 1017.8 -
13/09:30pm 11.9 - - - - ESE 15 20 8 11 1018.0 1018.0 -
13/09:00pm 12.2 - - - - ESE 19 22 10 12 1018.2 1018.2 -
13/08:30pm 12.1 - - - - ESE 20 22 11 12 1018.1 1018.1 -
13/08:00pm 12.1 - - - - ESE 17 20 9 11 1018.0 1018.0 -
13/07:30pm 12.1 - - - - E 15 20 8 11 1018.0 1018.0 -
13/07:00pm 12.0 - - - - ESE 20 24 11 13 1017.7 1017.7 -
13/06:30pm 12.0 - - - - ESE 19 20 10 11 1017.8 1017.8 -
13/06:00pm 11.9 - - - - E 17 20 9 11 1018.1 1018.1 -
13/05:30pm 11.8 - - - - E 17 20 9 11 1018.1 1018.1 -
13/05:00pm 11.8 - - - - E 19 22 10 12 1018.3 1018.3 -
13/04:30pm 11.7 - - - - E 15 19 8 10 1018.6 1018.6 -
13/04:00pm 11.7 - - - - E 17 20 9 11 1018.9 1018.9 -
13/03:30pm 11.7 - - - - E 17 20 9 11 1019.1 1019.1 -
13/03:00pm 11.7 - - - - E 17 20 9 11 1019.3 1019.3 -
13/02:30pm 11.4 - - - - E 17 22 9 12 1019.7 1019.7 -
13/02:00pm 11.4 - - - - E 17 22 9 12 1020.1 1020.1 -
13/01:30pm 11.2 - - - - E 19 22 10 12 1020.2 1020.2 -
13/01:00pm 11.2 - - - - E 19 24 10 13 1020.5 1020.5 -
13/12:30pm 11.0 - - - - ESE 22 24 12 13 1020.7 1020.7 -
13/12:00pm 10.9 - - - - E 19 22 10 12 1021.0 1021.0 -
13/11:30am 10.9 - - - - E 19 24 10 13 1021.7 1021.7 -
13/11:00am 10.9 - - - - ESE 20 24 11 13 1021.7 1021.7 -
13/10:30am 10.7 - - - - ESE 19 22 10 12 1022.0 1022.0 -
13/10:00am 10.6 - - - - ESE 19 22 10 12 1022.2 1022.2 -
13/09:30am 10.4 - - - - ESE 19 24 10 13 1022.0 1022.0 -
13/09:00am 10.3 - - - - ESE 24 28 13 15 1021.5 1021.5 -
13/08:30am 10.4 - - - - ESE 24 28 13 15 1021.5 1021.5 -
13/08:00am 10.5 - - - - ESE 22 26 12 14 1021.5 1021.5 -
13/07:30am 10.5 - - - - ESE 22 28 12 15 1021.4 1021.4 -
13/07:00am 10.6 - - - - ESE 22 30 12 16 1021.3 1021.3 -
13/06:30am 10.6 - - - - E 19 24 10 13 1021.2 1021.2 -
13/06:00am 11.3 - - - - E 17 24 9 13 1020.9 1020.9 -
13/05:30am 11.4 - - - - ENE 13 26 7 14 1021.0 1021.0 -
13/05:00am 11.4 - - - - NE 15 24 8 13 1021.0 1021.0 -
13/04:30am 11.4 - - - - NE 17 28 9 15 1021.0 1021.0 -
13/04:00am 11.4 - - - - ENE 15 24 8 13 1021.3 1021.3 -
13/03:30am 11.4 - - - - E 17 24 9 13 1021.8 1021.8 -
13/03:00am 11.5 - - - - ENE 15 24 8 13 1021.5 1021.5 -
13/02:30am 11.5 - - - - ENE 19 28 10 15 1021.8 1021.8 -
13/02:00am 11.5 - - - - E 17 24 9 13 1022.4 1022.4 -
13/01:30am 11.6 - - - - ENE 15 24 8 13 1022.8 1022.8 -
13/01:00am 11.7 - - - - NE 19 32 10 17 1023.2 1023.2 -
13/12:30am 11.7 - - - - NE 19 28 10 15 1023.5 1023.5 -
13/12:00am 11.7 - - - - NE 17 26 9 14 1023.5 1023.5 -
 
Date/Time
EDT
Temp
°C
App
Temp
°C
Dew
Point
°C
Rel
Hum
%
Delta-T
°C
Wind Press
QNH
hPa
Press
MSL
hPa
Rain since
9am
mm
Dir  Spd
km/h
Gust
km/h
Spd
kts
Gust
kts
12/11:30pm 11.7 - - - - NE 19 28 10 15 1023.7 1023.7 -
12/11:00pm 11.7 - - - - NE 22 28 12 15 1023.5 1023.5 -
12/10:30pm 11.7 - - - - NE 17 32 9 17 1023.0 1023.0 -
12/10:00pm 11.8 - - - - E 15 22 8 12 1023.1 1023.1 -
12/09:30pm 11.8 - - - - E 17 22 9 12 1023.1 1023.1 -
12/09:00pm 11.9 - - - - E 13 19 7 10 1023.0 1023.0 -
12/08:30pm 11.9 - - - - E 11 15 6 8 1022.6 1022.6 -
12/08:00pm 11.8 - - - - E 11 17 6 9 1022.2 1022.2 -
12/07:30pm 11.8 - - - - E 9 13 5 7 1022.0 1022.0 -
12/07:00pm 12.0 - - - - E 9 11 5 6 1021.8 1021.8 -
12/06:30pm 11.9 - - - - ENE 6 13 3 7 1021.9 1021.9 -
12/06:00pm 11.8 - - - - NE 9 15 5 8 1021.7 1021.7 -
12/05:30pm 11.8 - - - - NE 11 13 6 7 1021.7 1021.7 -
12/05:00pm 11.6 - - - - NE 11 15 6 8 1021.7 1021.7 -
12/04:30pm 11.7 - - - - NE 13 17 7 9 1021.6 1021.6 -
12/04:00pm 11.6 - - - - NE 13 19 7 10 1021.8 1021.8 -
12/03:30pm 11.3 - - - - NE 11 15 6 8 1022.0 1022.0 -
12/03:00pm 11.2 - - - - ENE 7 13 4 7 1022.2 1022.2 -
12/02:30pm 11.1 - - - - NE 15 19 8 10 1022.5 1022.5 -
12/02:00pm 11.1 - - - - ENE 11 19 6 10 1023.2 1023.2 -
12/01:30pm 10.9 - - - - E 13 19 7 10 1023.3 1023.3 -
12/01:00pm 10.8 - - - - E 13 19 7 10 1023.4 1023.4 -
12/12:30pm 10.9 - - - - E 19 24 10 13 1023.6 1023.6 -
12/12:00pm 10.8 - - - - E 20 24 11 13 1023.8 1023.8 -
12/11:30am 10.6 - - - - E 22 28 12 15 1024.0 1024.0 -
12/11:00am 10.6 - - - - ESE 26 32 14 17 1024.2 1024.2 -
12/10:30am 10.5 - - - - ESE 22 30 12 16 1024.3 1024.3 -
12/10:00am 10.2 - - - - ESE 20 26 11 14 1024.4 1024.4 -
12/09:30am 10.1 - - - - SE 22 32 12 17 1024.6 1024.6 -
12/09:00am 9.8 - - - - SE 19 24 10 13 1024.7 1024.7 -
12/08:30am 9.2 - - - - SE 24 30 13 16 1024.5 1024.5 -
12/08:00am 9.0 - - - - SSE 24 33 13 18 1024.2 1024.2 -
12/07:30am 8.1 - - - - SSE 22 26 12 14 1024.2 1024.2 -
12/07:00am 7.3 - - - - S 22 26 12 14 1023.9 1023.9 -
12/06:30am 7.2 - - - - S 17 22 9 12 1023.7 1023.7 -
12/06:00am 7.7 - - - - S 19 22 10 12 1023.8 1023.8 -
12/05:30am 7.7 - - - - S 19 22 10 12 1023.9 1023.9 -
12/05:00am 8.1 - - - - SSE 19 24 10 13 1023.9 1023.9 -
12/04:30am 7.9 - - - - S 20 28 11 15 1023.8 1023.8 -
12/04:00am 7.8 - - - - S 20 26 11 14 1023.8 1023.8 -
12/03:30am 7.9 - - - - S 20 26 11 14 1023.8 1023.8 -
12/03:00am 8.5 - - - - SSE 20 28 11 15 1024.2 1024.2 -
12/02:30am 8.8 - - - - SSE 24 33 13 18 1024.5 1024.5 -
12/02:00am 8.3 - - - - SSE 22 30 12 16 1024.6 1024.6 -
12/01:30am 8.8 - - - - SSE 24 30 13 16 1024.9 1024.9 -
12/01:00am 8.9 - - - - SSE 24 30 13 16 1024.9 1024.9 -
12/12:30am 9.1 - - - - SSE 20 28 11 15 1024.8 1024.8 -
12/12:00am 9.3 - - - - SSE 20 28 11 15 1024.9 1024.9 -
 
Date/Time
EDT
Temp
°C
App
Temp
°C
Dew
Point
°C
Rel
Hum
%
Delta-T
°C
Wind Press
QNH
hPa
Press
MSL
hPa
Rain since
9am
mm
Dir  Spd
km/h
Gust
km/h
Spd
kts
Gust
kts
11/11:30pm 10.3 - - - - SE 20 28 11 15 1024.8 1024.8 -
11/11:00pm 10.8 - - - - SE 24 37 13 20 1024.5 1024.5 -
11/10:30pm 11.4 - - - - E 30 39 16 21 1024.5 1024.5 -
11/10:00pm 11.3 - - - - E 28 39 15 21 1024.5 1024.5 -
11/09:30pm 11.9 - - - - E 22 30 12 16 1024.3 1024.3 -
11/09:00pm 11.8 - - - - E 20 28 11 15 1024.3 1024.3 -
11/08:30pm 11.9 - - - - E 17 22 9 12 1024.0 1024.0 -
11/08:00pm 11.8 - - - - ENE 11 20 6 11 1023.8 1023.8 -
11/07:30pm 11.8 - - - - ENE 11 19 6 10 1023.6 1023.6 -
11/07:00pm 11.8 - - - - NE 11 17 6 9 1023.3 1023.3 -
11/06:30pm 12.0 - - - - ENE 7 17 4 9 1023.1 1023.1 -
11/06:00pm 11.9 - - - - ENE 9 15 5 8 1023.1 1023.1 -
11/05:30pm 11.9 - - - - E 7 13 4 7 1022.9 1022.9 -
11/05:00pm 11.7 - - - - NE 11 17 6 9 1022.8 1022.8 -

Other formats

Comma delimited format used in spreadsheet applications
http://www.bom.gov.au/fwo/IDT60801/IDT60801.95963.axf

JavaScript Object Notation format (JSON) in row-major order
http://www.bom.gov.au/fwo/IDT60801/IDT60801.95963.json

Data quality

Most of these data are generated automatically and are frequently updated. Quality checks on data are not normally performed. It is possible for incorrect values to appear. Refer to information at About Latest Weather Observations and please check the disclaimer before using these data.